Chickasaw, Iowa
Current Conditions -  °F | °C
As of 5:15 PM on Sunday 21 Dec 2014 (Local Time) from KCCY Reporting Station
Haze Haze  
Wind Chill: 28°   Ceiling: 400
Heat Index: 37°   Visibility: 1.5mi
Dew Point: 37°   Wind: 16mph
Humidity: 100%   Direction: 170°S
Pressure: 29.83"   Gusts: NA
Location:  43.0386°N, 92.4951°W
Report Text: KCCY 212315Z AUTO 17014KT 1 1/2SM BR OVC004 03/03 A2983 RMK AO2
Loading
Personal Weather Stations






























Interactive Weather Map New forecast layout! Learn more

10-Day Weather Forecast

Advertisements
Track Severe Weather on mobile